Time;durP1;ratioP1;P1;durP2;ratioP2;P2;SDS_P1;SDS_P2;PMS_P1;PMS_P2;Temp;Humidity;BMP_temperature;BMP_pressure;BME280_temperature;BME280_humidity;BME280_pressure;Samples;Min_cycle;Max_cycle;Signal;HPM_P1;HPM_P2
2023/08/02 00:01:26;;;;;;;14.30;13.48;;;;;;;;;;5073305;28;20048;-76
2023/08/02 00:03:51;;;;;;;13.95;13.05;;;;;;;;;;5076630;28;20057;-76
2023/08/02 00:06:17;;;;;;;14.57;13.70;;;;;;;;;;5076467;28;20036;-74
2023/08/02 00:08:42;;;;;;;13.20;12.40;;;;;;;;;;5074239;28;20095;-75
2023/08/02 00:11:17;;;;;;;13.52;12.73;;;;;;;;;;5078153;28;20032;-77
2023/08/02 00:13:43;;;;;;;12.93;12.18;;;;;;;;;;5077032;28;20516;-76
2023/08/02 00:16:09;;;;;;;12.82;12.02;;;;;;;;;;5074819;28;20116;-76
2023/08/02 00:18:35;;;;;;;13.55;12.30;;;;;;;;;;5079548;28;20086;-75
2023/08/02 00:21:00;;;;;;;14.27;13.38;;;;;;;;;;5063640;28;20024;-75
2023/08/02 00:23:25;;;;;;;14.07;13.25;;;;;;;;;;5073453;28;20039;-76
2023/08/02 00:25:51;;;;;;;12.57;11.85;;;;;;;;;;5071811;28;20048;-75
2023/08/02 00:28:17;;;;;;;13.02;12.23;;;;;;;;;;5078304;28;20117;-76
2023/08/02 00:30:44;;;;;;;13.10;12.30;;;;;;;;;;5077065;28;20027;-77
2023/08/02 00:33:10;;;;;;;15.75;14.80;;;;;;;;;;5080713;28;20474;-75
2023/08/02 00:35:35;;;;;;;16.05;15.15;;;;;;;;;;5079600;28;20038;-75
2023/08/02 00:38:00;;;;;;;15.18;14.32;;;;;;;;;;5079113;28;20028;-76
2023/08/02 00:40:26;;;;;;;13.90;13.10;;;;;;;;;;5079436;28;20458;-76
2023/08/02 00:42:51;;;;;;;15.15;14.25;;;;;;;;;;5078218;28;20032;-75
2023/08/02 00:45:16;;;;;;;14.98;14.07;;;;;;;;;;5079497;28;20032;-76
2023/08/02 00:47:42;;;;;;;17.15;16.15;;;;;;;;;;5082238;28;20043;-76
2023/08/02 00:50:09;;;;;;;14.23;13.43;;;;;;;;;;5078891;28;20035;-77
2023/08/02 00:52:35;;;;;;;12.82;12.10;;;;;;;;;;5080266;28;20286;-77
2023/08/02 00:55:03;;;;;;;15.60;14.45;;;;;;;;;;5078168;28;20021;-77
2023/08/02 00:57:29;;;;;;;13.93;13.13;;;;;;;;;;5079720;28;20108;-77
2023/08/02 00:59:54;;;;;;;14.07;13.25;;;;;;;;;;5078005;28;20033;-77
2023/08/02 01:02:20;;;;;;;12.40;11.70;;;;;;;;;;5078605;28;20028;-77
2023/08/02 01:04:46;;;;;;;12.48;11.77;;;;;;;;;;5079607;28;20031;-78
2023/08/02 01:07:49;;;;;;;13.75;12.63;;;;;;;;;;5083494;28;20036;-78
2023/08/02 01:10:33;;;;;;;12.25;11.45;;;;;;;;;;5072017;28;20055;-78
2023/08/02 01:13:04;;;;;;;12.15;11.45;;;;;;;;;;5076928;28;20508;-77
2023/08/02 01:15:30;;;;;;;13.98;13.18;;;;;;;;;;5079883;28;20040;-77
2023/08/02 01:17:56;;;;;;;13.40;12.60;;;;;;;;;;5077866;28;20111;-77
2023/08/02 01:20:22;;;;;;;13.95;13.15;;;;;;;;;;5077823;28;20525;-78
2023/08/02 01:22:47;;;;;;;13.52;12.63;;;;;;;;;;5077551;28;20126;-77
2023/08/02 01:25:13;;;;;;;13.20;12.43;;;;;;;;;;5076731;28;20385;-77
2023/08/02 01:27:46;;;;;;;13.98;13.07;;;;;;;;;;5077466;28;20111;-77
2023/08/02 01:30:14;;;;;;;18.80;17.60;;;;;;;;;;5077490;28;20032;-79
2023/08/02 01:32:39;;;;;;;16.42;15.52;;;;;;;;;;5079732;28;20032;-77
2023/08/02 01:35:06;;;;;;;21.25;20.10;;;;;;;;;;5078017;28;20462;-77
2023/08/02 01:37:34;;;;;;;20.92;19.80;;;;;;;;;;5079709;28;20221;-76
2023/08/02 01:39:59;;;;;;;25.02;23.67;;;;;;;;;;5077897;28;20032;-76
2023/08/02 01:42:25;;;;;;;23.25;22.02;;;;;;;;;;5076968;28;20123;-76
2023/08/02 01:44:50;;;;;;;22.50;21.30;;;;;;;;;;5080881;28;20115;-77
2023/08/02 01:47:17;;;;;;;20.35;19.23;;;;;;;;;;5077248;28;20479;-78
2023/08/02 01:49:43;;;;;;;22.23;20.98;;;;;;;;;;5080003;28;20123;-77
2023/08/02 01:52:08;;;;;;;17.60;16.60;;;;;;;;;;5076665;28;20127;-76
2023/08/02 01:54:33;;;;;;;17.38;16.17;;;;;;;;;;5075474;28;20043;-78
2023/08/02 01:56:59;;;;;;;13.50;12.70;;;;;;;;;;5082827;28;20099;-77
2023/08/02 01:59:24;;;;;;;13.45;12.65;;;;;;;;;;5079361;28;20429;-77
2023/08/02 02:01:49;;;;;;;16.00;15.05;;;;;;;;;;5081097;28;20045;-77
2023/08/02 02:04:15;;;;;;;13.52;12.73;;;;;;;;;;5076170;28;20032;-78
2023/08/02 02:06:40;;;;;;;13.00;12.20;;;;;;;;;;5078316;28;20039;-77
2023/08/02 02:09:06;;;;;;;12.95;12.15;;;;;;;;;;5079353;28;20433;-78
2023/08/02 02:11:31;;;;;;;12.68;11.88;;;;;;;;;;5075543;28;20028;-77
2023/08/02 02:13:56;;;;;;;13.05;12.20;;;;;;;;;;5078152;28;20032;-77
2023/08/02 02:16:22;;;;;;;13.13;12.32;;;;;;;;;;5078032;28;20055;-77
2023/08/02 02:18:47;;;;;;;11.63;10.93;;;;;;;;;;5081528;28;20082;-78
2023/08/02 02:21:12;;;;;;;11.23;10.52;;;;;;;;;;5079594;28;20331;-78
2023/08/02 02:23:37;;;;;;;14.93;14.10;;;;;;;;;;5079843;28;20047;-78
2023/08/02 02:26:03;;;;;;;13.35;12.52;;;;;;;;;;5081105;28;20036;-78
2023/08/02 02:28:29;;;;;;;14.05;13.13;;;;;;;;;;5079841;28;20489;-78
2023/08/02 02:30:54;;;;;;;12.32;11.63;;;;;;;;;;5077653;28;20465;-78
2023/08/02 02:33:19;;;;;;;13.15;12.25;;;;;;;;;;5079951;28;20119;-77
2023/08/02 02:35:45;;;;;;;11.52;10.82;;;;;;;;;;5078894;28;20040;-79
2023/08/02 02:38:10;;;;;;;12.63;11.82;;;;;;;;;;5079451;28;20051;-77
2023/08/02 02:40:35;;;;;;;12.63;11.82;;;;;;;;;;5077943;28;20033;-76
2023/08/02 02:43:01;;;;;;;12.13;11.32;;;;;;;;;;5076566;28;20038;-78
2023/08/02 02:45:26;;;;;;;12.82;12.02;;;;;;;;;;5060835;28;20024;-77
2023/08/02 02:47:51;;;;;;;11.35;10.65;;;;;;;;;;5077122;28;20208;-77
2023/08/02 02:50:18;;;;;;;11.13;10.43;;;;;;;;;;5074329;28;20040;-77
2023/08/02 02:52:43;;;;;;;13.25;12.43;;;;;;;;;;5075910;28;20032;-78
2023/08/02 02:55:11;;;;;;;12.02;11.32;;;;;;;;;;5078183;28;20036;-76
2023/08/02 02:57:36;;;;;;;12.95;12.18;;;;;;;;;;5076507;28;20111;-77
2023/08/02 03:00:03;;;;;;;12.95;12.00;;;;;;;;;;5080690;28;20428;-76
2023/08/02 03:02:28;;;;;;;11.35;10.65;;;;;;;;;;5079944;28;20323;-76
2023/08/02 03:04:54;;;;;;;12.18;11.48;;;;;;;;;;5077249;28;20040;-77
2023/08/02 03:07:19;;;;;;;12.95;12.23;;;;;;;;;;5077453;28;20048;-78
2023/08/02 03:09:44;;;;;;;12.38;11.55;;;;;;;;;;5077867;28;20036;-78
2023/08/02 03:12:10;;;;;;;12.75;11.95;;;;;;;;;;5077299;28;20355;-77
2023/08/02 03:14:35;;;;;;;11.05;10.40;;;;;;;;;;5075903;28;20068;-77
2023/08/02 03:17:01;;;;;;;14.60;13.65;;;;;;;;;;5077310;28;20040;-77
2023/08/02 03:19:26;;;;;;;11.90;11.20;;;;;;;;;;5073717;28;20032;-77
2023/08/02 03:21:51;;;;;;;10.95;10.27;;;;;;;;;;5076230;28;20450;-77
2023/08/02 03:24:17;;;;;;;11.63;10.80;;;;;;;;;;5077729;28;20351;-76
2023/08/02 03:26:42;;;;;;;11.55;10.85;;;;;;;;;;5078718;28;20123;-77
2023/08/02 03:29:07;;;;;;;12.00;11.30;;;;;;;;;;5072374;28;20123;-77
2023/08/02 03:31:33;;;;;;;12.18;11.38;;;;;;;;;;5076221;28;20086;-77
2023/08/02 03:33:58;;;;;;;11.55;10.85;;;;;;;;;;5077017;28;20043;-76
2023/08/02 03:36:24;;;;;;;11.77;10.98;;;;;;;;;;5078033;28;20086;-77
2023/08/02 03:38:49;;;;;;;11.00;10.30;;;;;;;;;;5076937;28;20115;-72
2023/08/02 03:41:14;;;;;;;11.30;10.60;;;;;;;;;;5083400;28;20036;-73
2023/08/02 03:43:40;;;;;;;10.10;9.50;;;;;;;;;;5076823;28;20036;-71
2023/08/02 03:46:06;;;;;;;11.75;10.80;;;;;;;;;;5063737;28;20467;-72
2023/08/02 03:48:31;;;;;;;11.27;10.57;;;;;;;;;;5073555;28;20044;-70
2023/08/02 03:50:58;;;;;;;11.35;10.65;;;;;;;;;;5076494;28;20035;-69
2023/08/02 03:53:27;;;;;;;10.77;10.13;;;;;;;;;;5074634;28;20127;-69
2023/08/02 03:55:52;;;;;;;11.45;10.75;;;;;;;;;;5076936;28;20362;-69
2023/08/02 03:58:18;;;;;;;11.60;10.90;;;;;;;;;;5078709;28;20039;-69
2023/08/02 04:00:43;;;;;;;11.57;10.82;;;;;;;;;;5071857;28;20648;-69
2023/08/02 04:03:08;;;;;;;10.85;10.18;;;;;;;;;;5072675;28;20054;-68
2023/08/02 04:05:34;;;;;;;11.85;11.15;;;;;;;;;;5076328;28;20346;-70
2023/08/02 04:07:59;;;;;;;11.60;10.80;;;;;;;;;;5079003;28;20119;-70
2023/08/02 04:10:24;;;;;;;11.48;10.77;;;;;;;;;;5074370;28;20477;-69
2023/08/02 04:12:51;;;;;;;11.10;10.40;;;;;;;;;;5075055;28;20324;-71
2023/08/02 04:15:16;;;;;;;11.30;10.60;;;;;;;;;;5076637;28;20047;-69
2023/08/02 04:17:42;;;;;;;12.40;11.68;;;;;;;;;;5078997;28;20035;-68
2023/08/02 04:20:08;;;;;;;10.85;10.20;;;;;;;;;;5075646;28;21091;-69
2023/08/02 04:22:33;;;;;;;11.07;10.38;;;;;;;;;;5077492;28;20393;-69
2023/08/02 04:24:58;;;;;;;11.40;10.70;;;;;;;;;;5076992;28;20617;-70
2023/08/02 04:27:24;;;;;;;12.65;11.45;;;;;;;;;;5072743;28;20053;-69
2023/08/02 04:29:49;;;;;;;12.70;12.00;;;;;;;;;;5073786;28;20120;-69
2023/08/02 04:32:15;;;;;;;10.80;10.02;;;;;;;;;;5074418;28;20497;-69
2023/08/02 04:34:40;;;;;;;10.73;10.07;;;;;;;;;;5074572;28;20043;-69
2023/08/02 04:37:05;;;;;;;12.30;11.60;;;;;;;;;;5077477;28;20035;-69
2023/08/02 04:39:31;;;;;;;11.82;11.13;;;;;;;;;;5080388;28;20116;-69
2023/08/02 04:42:00;;;;;;;11.48;10.77;;;;;;;;;;5080639;28;20036;-68
2023/08/02 04:44:26;;;;;;;12.35;11.65;;;;;;;;;;5074845;28;20036;-69
2023/08/02 04:46:51;;;;;;;12.10;11.40;;;;;;;;;;5077429;28;20046;-69
2023/08/02 04:49:17;;;;;;;11.75;11.05;;;;;;;;;;5075013;28;20044;-69
2023/08/02 04:51:42;;;;;;;10.77;10.07;;;;;;;;;;5075309;28;20044;-70
2023/08/02 04:54:07;;;;;;;12.63;11.82;;;;;;;;;;5075229;28;20055;-69
2023/08/02 04:56:33;;;;;;;11.15;10.45;;;;;;;;;;5075215;28;20525;-69
2023/08/02 04:58:58;;;;;;;12.10;11.40;;;;;;;;;;5079036;28;20024;-69
2023/08/02 05:01:23;;;;;;;13.45;12.55;;;;;;;;;;5076183;28;20036;-69
2023/08/02 05:03:49;;;;;;;11.93;11.23;;;;;;;;;;5076214;28;20127;-69
2023/08/02 05:06:14;;;;;;;11.73;11.00;;;;;;;;;;5077165;28;20036;-68
2023/08/02 05:08:40;;;;;;;12.45;11.75;;;;;;;;;;5076769;28;20374;-69
2023/08/02 05:11:06;;;;;;;11.55;10.85;;;;;;;;;;5075749;28;20361;-68
2023/08/02 05:13:32;;;;;;;11.82;11.02;;;;;;;;;;5073538;28;20036;-69
2023/08/02 05:15:58;;;;;;;12.52;11.82;;;;;;;;;;5076796;28;20059;-69
2023/08/02 05:18:23;;;;;;;13.68;12.88;;;;;;;;;;5080648;28;20035;-69
2023/08/02 05:20:49;;;;;;;14.90;14.02;;;;;;;;;;5078428;28;20064;-69
2023/08/02 05:23:14;;;;;;;15.48;14.57;;;;;;;;;;5077744;28;20044;-70
2023/08/02 05:25:40;;;;;;;16.45;15.52;;;;;;;;;;5077803;28;20036;-70
2023/08/02 05:28:06;;;;;;;16.40;15.48;;;;;;;;;;5078467;28;20067;-68
2023/08/02 05:30:31;;;;;;;15.68;14.77;;;;;;;;;;5077250;28;20645;-69
2023/08/02 05:32:57;;;;;;;20.15;19.02;;;;;;;;;;5080422;28;20131;-68
2023/08/02 05:35:24;;;;;;;24.15;22.88;;;;;;;;;;5076584;28;20043;-68
2023/08/02 05:37:50;;;;;;;20.58;19.42;;;;;;;;;;5078590;28;20032;-68
2023/08/02 05:40:15;;;;;;;26.58;25.15;;;;;;;;;;5081117;28;20047;-68
2023/08/02 05:42:41;;;;;;;23.00;21.77;;;;;;;;;;5080438;28;20055;-69
2023/08/02 05:45:06;;;;;;;30.55;28.83;;;;;;;;;;5080673;28;20048;-70
2023/08/02 05:47:32;;;;;;;37.33;35.40;;;;;;;;;;5081621;28;20361;-69
2023/08/02 05:49:57;;;;;;;31.10;29.45;;;;;;;;;;5078424;28;20040;-69
2023/08/02 05:52:23;;;;;;;37.00;35.05;;;;;;;;;;5078729;28;20040;-71
2023/08/02 05:54:48;;;;;;;42.92;40.60;;;;;;;;;;5074994;28;20025;-69
2023/08/02 05:57:14;;;;;;;42.13;39.90;;;;;;;;;;5081661;28;20036;-69
2023/08/02 05:59:39;;;;;;;48.65;46.20;;;;;;;;;;5079617;28;20024;-71
2023/08/02 06:02:07;;;;;;;63.20;60.05;;;;;;;;;;5078470;28;20043;-72
2023/08/02 06:04:38;;;;;;;97.47;92.47;;;;;;;;;;5077925;28;20039;-72
2023/08/02 06:07:04;;;;;;;128.65;122.30;;;;;;;;;;5079901;28;20039;-72
2023/08/02 06:09:30;;;;;;;130.65;124.20;;;;;;;;;;5082285;28;20133;-69
2023/08/02 06:11:56;;;;;;;136.93;130.10;;;;;;;;;;5077672;28;20036;-69
2023/08/02 06:14:21;;;;;;;144.35;137.20;;;;;;;;;;5080493;28;20514;-68
2023/08/02 06:16:47;;;;;;;177.70;169.00;;;;;;;;;;5076743;28;20432;-69
2023/08/02 06:19:12;;;;;;;149.05;141.68;;;;;;;;;;5077513;28;20048;-70
2023/08/02 06:21:38;;;;;;;184.68;175.60;;;;;;;;;;5083683;28;20109;-70
2023/08/02 06:24:03;;;;;;;187.70;178.52;;;;;;;;;;5080412;28;20123;-70
2023/08/02 06:26:29;;;;;;;202.35;192.45;;;;;;;;;;5077495;28;20055;-72
2023/08/02 06:28:55;;;;;;;206.15;196.07;;;;;;;;;;5077731;28;20387;-73
2023/08/02 06:31:21;;;;;;;180.43;171.55;;;;;;;;;;5079145;28;20046;-72
2023/08/02 06:33:47;;;;;;;208.07;197.93;;;;;;;;;;5078265;28;20036;-74
2023/08/02 06:36:12;;;;;;;191.25;181.88;;;;;;;;;;5077638;28;20567;-72
2023/08/02 06:38:37;;;;;;;194.15;184.57;;;;;;;;;;5073909;28;20028;-72
2023/08/02 06:41:03;;;;;;;203.98;193.85;;;;;;;;;;5077769;28;20036;-70
2023/08/02 06:43:29;;;;;;;198.75;188.98;;;;;;;;;;5077473;28;20024;-72
2023/08/02 06:45:54;;;;;;;187.80;178.55;;;;;;;;;;5075312;28;20042;-72
2023/08/02 06:48:25;;;;;;;168.88;160.55;;;;;;;;;;5073929;28;20064;-72
2023/08/02 06:50:55;;;;;;;122.57;116.38;;;;;;;;;;5078169;28;20559;-74
2023/08/02 06:53:20;;;;;;;85.97;81.68;;;;;;;;;;5078429;28;20477;-73
2023/08/02 06:55:45;;;;;;;82.72;78.57;;;;;;;;;;5076340;28;20024;-70
2023/08/02 06:58:11;;;;;;;69.45;65.93;;;;;;;;;;5075736;28;20367;-73
2023/08/02 07:00:36;;;;;;;60.28;57.17;;;;;;;;;;5078051;28;20052;-73
2023/08/02 07:03:02;;;;;;;66.65;63.20;;;;;;;;;;5074533;28;20055;-71
2023/08/02 07:05:29;;;;;;;62.55;59.35;;;;;;;;;;5079032;28;20050;-72
2023/08/02 07:07:56;;;;;;;56.65;53.78;;;;;;;;;;5080657;28;20040;-70
2023/08/02 07:10:21;;;;;;;51.55;48.88;;;;;;;;;;5080311;28;20031;-72
2023/08/02 07:12:48;;;;;;;45.90;43.53;;;;;;;;;;5076518;28;20775;-73
2023/08/02 07:15:14;;;;;;;50.40;47.80;;;;;;;;;;5075847;28;20059;-71
2023/08/02 07:17:40;;;;;;;50.28;47.65;;;;;;;;;;5078675;28;20348;-72
2023/08/02 07:20:06;;;;;;;57.10;54.22;;;;;;;;;;5074898;28;20028;-71
2023/08/02 07:22:31;;;;;;;54.90;52.15;;;;;;;;;;5077157;28;20028;-72
2023/08/02 07:24:56;;;;;;;47.33;44.92;;;;;;;;;;5077583;28;20036;-69
2023/08/02 07:27:22;;;;;;;48.50;46.00;;;;;;;;;;5077916;28;20549;-70
2023/08/02 07:29:49;;;;;;;45.83;43.47;;;;;;;;;;5075743;28;20055;-69
2023/08/02 07:32:14;;;;;;;42.10;39.90;;;;;;;;;;5076580;28;20036;-72
2023/08/02 07:34:40;;;;;;;40.58;38.47;;;;;;;;;;5078287;28;20040;-69
2023/08/02 07:37:06;;;;;;;34.58;32.78;;;;;;;;;;5078968;28;20074;-70
2023/08/02 07:39:32;;;;;;;32.97;31.20;;;;;;;;;;5083964;28;20138;-71
2023/08/02 07:41:57;;;;;;;38.22;36.30;;;;;;;;;;5074718;28;20389;-74
2023/08/02 07:44:23;;;;;;;49.28;46.55;;;;;;;;;;5076396;28;20059;-72
2023/08/02 07:46:50;;;;;;;42.53;40.35;;;;;;;;;;5077635;28;20054;-77
2023/08/02 07:49:15;;;;;;;44.00;41.63;;;;;;;;;;5077181;28;20893;-74
2023/08/02 07:51:41;;;;;;;49.83;47.22;;;;;;;;;;5075504;28;20060;-73
2023/08/02 07:54:06;;;;;;;43.47;41.28;;;;;;;;;;5075198;28;20031;-73
2023/08/02 07:56:31;;;;;;;44.20;41.90;;;;;;;;;;5076797;28;20691;-74
2023/08/02 07:58:57;;;;;;;43.80;41.55;;;;;;;;;;5074974;28;20111;-76
2023/08/02 08:01:22;;;;;;;50.85;48.28;;;;;;;;;;5078283;28;20031;-73
2023/08/02 08:03:47;;;;;;;45.28;42.95;;;;;;;;;;5081152;28;20811;-73
2023/08/02 08:06:15;;;;;;;45.33;42.95;;;;;;;;;;5075443;28;20033;-72
2023/08/02 08:08:41;;;;;;;61.78;58.58;;;;;;;;;;5075052;28;20044;-72
2023/08/02 08:11:07;;;;;;;61.15;58.10;;;;;;;;;;5076096;28;20060;-73
2023/08/02 08:13:32;;;;;;;57.05;54.15;;;;;;;;;;5075076;28;20415;-71
2023/08/02 08:15:59;;;;;;;49.92;47.33;;;;;;;;;;5080246;28;20032;-71
2023/08/02 08:18:25;;;;;;;76.90;73.07;;;;;;;;;;5075767;28;20063;-73
2023/08/02 08:20:51;;;;;;;86.72;82.45;;;;;;;;;;5078447;28;20059;-68
2023/08/02 08:23:16;;;;;;;96.53;91.78;;;;;;;;;;5080999;28;20119;-73
2023/08/02 08:25:41;;;;;;;86.50;82.22;;;;;;;;;;5077678;28;20027;-73
2023/08/02 08:28:07;;;;;;;79.22;75.25;;;;;;;;;;5074582;28;20787;-72
2023/08/02 08:30:32;;;;;;;84.25;80.10;;;;;;;;;;5073337;28;20111;-71
2023/08/02 08:32:58;;;;;;;86.47;82.20;;;;;;;;;;5075633;28;20422;-74
2023/08/02 08:35:23;;;;;;;94.10;89.50;;;;;;;;;;5073863;28;20032;-75
2023/08/02 08:37:51;;;;;;;78.40;74.47;;;;;;;;;;5075357;28;20032;-71
2023/08/02 08:40:18;;;;;;;88.57;84.22;;;;;;;;;;5075940;28;20039;-73
2023/08/02 08:42:55;;;;;;;93.88;89.22;;;;;;;;;;5076569;28;20032;-74
2023/08/02 08:45:22;;;;;;;82.25;78.13;;;;;;;;;;5074621;28;21196;-73
2023/08/02 08:47:49;;;;;;;94.72;90.05;;;;;;;;;;5076542;28;20032;-72
2023/08/02 08:50:16;;;;;;;98.93;94.05;;;;;;;;;;5075904;28;20028;-71
2023/08/02 08:52:44;;;;;;;101.13;96.13;;;;;;;;;;5080266;28;20626;-72
2023/08/02 08:55:15;;;;;;;97.38;92.55;;;;;;;;;;5078047;28;20058;-69
2023/08/02 08:57:42;;;;;;;90.55;86.07;;;;;;;;;;5079200;28;20024;-70
2023/08/02 09:00:09;;;;;;;97.50;92.68;;;;;;;;;;5078797;28;20540;-73
2023/08/02 09:02:37;;;;;;;110.35;104.93;;;;;;;;;;5082769;28;20028;-74
2023/08/02 09:05:03;;;;;;;106.28;101.03;;;;;;;;;;5076084;28;20027;-73
2023/08/02 09:07:30;;;;;;;114.72;109.07;;;;;;;;;;5052946;28;20599;-69
2023/08/02 09:09:56;;;;;;;108.35;103.03;;;;;;;;;;5081793;28;20094;-73
2023/08/02 09:12:27;;;;;;;89.88;85.43;;;;;;;;;;5076888;28;20060;-73
2023/08/02 09:15:01;;;;;;;103.55;98.28;;;;;;;;;;5078420;28;20476;-72
2023/08/02 09:17:27;;;;;;;96.63;91.78;;;;;;;;;;5077799;28;20119;-71
2023/08/02 09:20:07;;;;;;;86.57;82.28;;;;;;;;;;5078432;28;20098;-73
2023/08/02 09:22:32;;;;;;;91.80;87.25;;;;;;;;;;5076988;28;20055;-75
2023/08/02 09:24:58;;;;;;;103.57;98.47;;;;;;;;;;5078908;28;20082;-74
2023/08/02 09:27:29;;;;;;;97.40;92.47;;;;;;;;;;5076914;28;20032;-73
2023/08/02 09:29:55;;;;;;;107.55;102.25;;;;;;;;;;5076093;28;20579;-72
2023/08/02 09:32:22;;;;;;;112.70;107.10;;;;;;;;;;5078037;28;20036;-70
2023/08/02 09:34:49;;;;;;;85.30;81.07;;;;;;;;;;5080791;28;20039;-72
2023/08/02 09:37:16;;;;;;;91.93;87.38;;;;;;;;;;5075264;28;20067;-75
2023/08/02 09:39:51;;;;;;;85.95;81.63;;;;;;;;;;5077165;28;20024;-72
2023/08/02 09:42:20;;;;;;;85.28;81.05;;;;;;;;;;5079289;28;20048;-74
2023/08/02 09:44:57;;;;;;;91.93;87.43;;;;;;;;;;5085172;28;20024;-73
2023/08/02 09:47:23;;;;;;;99.72;94.82;;;;;;;;;;5077311;28;20048;-71
2023/08/02 09:50:11;;;;;;;97.38;92.55;;;;;;;;;;5078074;28;20111;-73
2023/08/02 09:52:40;;;;;;;82.85;78.75;;;;;;;;;;5079576;28;20043;-77
2023/08/02 09:55:06;;;;;;;82.68;78.50;;;;;;;;;;5079162;28;20040;-76
2023/08/02 09:57:32;;;;;;;86.53;82.25;;;;;;;;;;5074590;28;20052;-74
2023/08/02 10:00:06;;;;;;;71.03;67.47;;;;;;;;;;5076850;28;20031;-74
2023/08/02 10:02:34;;;;;;;71.60;68.00;;;;;;;;;;5065079;28;20369;-77
2023/08/02 10:05:01;;;;;;;71.57;67.97;;;;;;;;;;5075314;28;20033;-76
2023/08/02 10:07:47;;;;;;;51.30;48.70;;;;;;;;;;5079376;28;20039;-77
2023/08/02 10:10:18;;;;;;;63.85;60.65;;;;;;;;;;5078343;28;20032;-77
2023/08/02 10:12:51;;;;;;;70.22;66.72;;;;;;;;;;5079783;28;20432;-77
2023/08/02 10:15:17;;;;;;;66.22;62.90;;;;;;;;;;5078651;28;20051;-78
2023/08/02 10:17:45;;;;;;;64.00;60.72;;;;;;;;;;5076289;28;20028;-77
2023/08/02 10:20:12;;;;;;;73.70;70.05;;;;;;;;;;5078374;28;20059;-75
2023/08/02 10:22:40;;;;;;;60.00;56.97;;;;;;;;;;5080694;28;20506;-71
2023/08/02 10:25:06;;;;;;;60.97;57.88;;;;;;;;;;5087598;28;20083;-82
2023/08/02 10:27:33;;;;;;;63.88;60.67;;;;;;;;;;5080407;28;20024;-76
2023/08/02 10:29:59;;;;;;;74.93;71.20;;;;;;;;;;5072994;28;20036;-77
2023/08/02 10:32:25;;;;;;;52.25;49.63;;;;;;;;;;5081258;28;20028;-75
2023/08/02 10:34:51;;;;;;;39.92;37.85;;;;;;;;;;5076241;28;20492;-75
2023/08/02 10:37:18;;;;;;;70.60;67.10;;;;;;;;;;5075654;28;20127;-75
2023/08/02 10:39:47;;;;;;;68.25;64.85;;;;;;;;;;5075786;28;20039;-74
2023/08/02 10:42:15;;;;;;;76.63;72.78;;;;;;;;;;5076905;28;20493;-78
2023/08/02 10:44:56;;;;;;;94.82;90.05;;;;;;;;;;5076426;28;20486;-75
2023/08/02 10:47:31;;;;;;;104.35;99.20;;;;;;;;;;5076278;28;20726;-75
2023/08/02 10:49:58;;;;;;;94.72;89.93;;;;;;;;;;5079381;28;20028;-73
2023/08/02 10:52:38;;;;;;;87.57;83.25;;;;;;;;;;5074308;28;20454;-73
2023/08/02 10:55:05;;;;;;;100.82;95.60;;;;;;;;;;5076125;28;20028;-72
2023/08/02 10:57:31;;;;;;;101.63;96.63;;;;;;;;;;5075849;28;20048;-73
2023/08/02 10:59:57;;;;;;;91.32;86.80;;;;;;;;;;5078637;28;20071;-75
2023/08/02 11:02:25;;;;;;;74.90;71.13;;;;;;;;;;5074862;28;20044;-76
2023/08/02 11:04:51;;;;;;;88.55;84.18;;;;;;;;;;5076119;28;20090;-75
2023/08/02 11:07:18;;;;;;;107.32;102.03;;;;;;;;;;5075974;28;20024;-74
2023/08/02 11:09:54;;;;;;;111.55;106.05;;;;;;;;;;5078446;28;20039;-75
2023/08/02 11:12:20;;;;;;;99.40;94.38;;;;;;;;;;5077112;28;20096;-77
2023/08/02 11:14:49;;;;;;;121.03;115.03;;;;;;;;;;5079405;28;20111;-74
2023/08/02 11:17:22;;;;;;;142.43;135.40;;;;;;;;;;5078707;28;20599;-74
2023/08/02 11:19:50;;;;;;;116.97;111.20;;;;;;;;;;5076081;28;20102;-72
2023/08/02 11:22:16;;;;;;;101.28;96.25;;;;;;;;;;5078792;28;20056;-77
2023/08/02 11:24:47;;;;;;;117.95;112.05;;;;;;;;;;5079288;28;20032;-77
2023/08/02 11:27:19;;;;;;;119.57;113.68;;;;;;;;;;5074961;28;20044;-73
2023/08/02 11:30:07;;;;;;;113.95;108.35;;;;;;;;;;5081120;28;20043;-75
2023/08/02 11:32:33;;;;;;;100.95;95.97;;;;;;;;;;5078877;28;20318;-74
2023/08/02 11:35:00;;;;;;;100.30;95.35;;;;;;;;;;5075518;28;20692;-77
2023/08/02 11:37:26;;;;;;;97.03;92.22;;;;;;;;;;5077926;28;20415;-76
2023/08/02 11:39:58;;;;;;;104.80;99.60;;;;;;;;;;5077202;28;20020;-78
2023/08/02 11:42:25;;;;;;;104.95;99.68;;;;;;;;;;5074911;28;20072;-74
2023/08/02 11:44:51;;;;;;;111.53;105.97;;;;;;;;;;5073893;28;20085;-74
2023/08/02 11:47:16;;;;;;;116.82;111.05;;;;;;;;;;5077543;28;20036;-75
2023/08/02 11:49:47;;;;;;;112.13;106.47;;;;;;;;;;5074557;28;20105;-78
2023/08/02 11:52:13;;;;;;;111.20;105.65;;;;;;;;;;5073203;28;20067;-74
2023/08/02 11:54:38;;;;;;;100.68;95.70;;;;;;;;;;5075673;28;20406;-73
2023/08/02 11:57:04;;;;;;;117.47;111.65;;;;;;;;;;5076398;28;20062;-79
2023/08/02 11:59:29;;;;;;;101.75;96.65;;;;;;;;;;5064153;28;20129;-77
2023/08/02 12:01:55;;;;;;;110.35;104.88;;;;;;;;;;5077435;28;20055;-78
2023/08/02 12:04:20;;;;;;;117.18;111.32;;;;;;;;;;5072933;28;20033;-75
2023/08/02 12:06:51;;;;;;;106.30;101.05;;;;;;;;;;5077062;28;20074;-74
2023/08/02 12:09:18;;;;;;;111.13;105.63;;;;;;;;;;5074317;28;20032;-74
2023/08/02 12:11:44;;;;;;;109.28;103.90;;;;;;;;;;5077215;28;20040;-73
2023/08/02 12:14:10;;;;;;;153.45;145.85;;;;;;;;;;5077858;28;20033;-77
2023/08/02 12:16:43;;;;;;;130.68;124.18;;;;;;;;;;5078019;28;20047;-77
2023/08/02 12:19:09;;;;;;;141.40;134.43;;;;;;;;;;5076764;28;20033;-75
2023/08/02 12:21:35;;;;;;;150.77;143.30;;;;;;;;;;5074978;28;20133;-77
2023/08/02 12:24:12;;;;;;;104.43;99.20;;;;;;;;;;5078729;28;20040;-76
2023/08/02 12:26:38;;;;;;;162.65;154.60;;;;;;;;;;5075246;28;20037;-76
2023/08/02 12:29:04;;;;;;;153.95;146.35;;;;;;;;;;5075964;28;20035;-76
2023/08/02 12:31:43;;;;;;;160.65;152.70;;;;;;;;;;5075384;28;20027;-72
2023/08/02 12:34:09;;;;;;;152.68;145.07;;;;;;;;;;5073514;28;20036;-79
2023/08/02 12:36:35;;;;;;;144.52;137.32;;;;;;;;;;5074844;28;20055;-74
2023/08/02 12:39:00;;;;;;;168.43;160.10;;;;;;;;;;5074956;28;20016;-74
2023/08/02 12:41:25;;;;;;;152.65;145.10;;;;;;;;;;5076575;28;20354;-75
2023/08/02 12:43:51;;;;;;;141.02;134.05;;;;;;;;;;5075524;28;20617;-75
2023/08/02 12:46:17;;;;;;;146.45;139.25;;;;;;;;;;5080259;28;20067;-78
2023/08/02 12:48:44;;;;;;;155.77;148.07;;;;;;;;;;5076964;28;20426;-75
2023/08/02 12:51:10;;;;;;;157.50;149.43;;;;;;;;;;5079391;28;20055;-78
2023/08/02 12:53:36;;;;;;;168.35;160.07;;;;;;;;;;5077844;28;20119;-73
2023/08/02 12:56:01;;;;;;;148.98;141.57;;;;;;;;;;5081305;28;20103;-77
2023/08/02 12:58:27;;;;;;;154.00;146.35;;;;;;;;;;5078366;28;20069;-74
2023/08/02 13:00:53;;;;;;;149.98;142.57;;;;;;;;;;5075985;28;20036;-76
2023/08/02 13:03:22;;;;;;;164.55;156.40;;;;;;;;;;5074942;28;20043;-69
2023/08/02 13:05:48;;;;;;;157.93;150.07;;;;;;;;;;5074727;28;20039;-69
2023/08/02 13:08:13;;;;;;;155.57;147.82;;;;;;;;;;5077141;28;20085;-68
2023/08/02 13:10:40;;;;;;;139.27;132.30;;;;;;;;;;5076764;28;20588;-69
2023/08/02 13:13:05;;;;;;;140.52;133.43;;;;;;;;;;5072833;28;20044;-69
2023/08/02 13:15:31;;;;;;;143.25;136.07;;;;;;;;;;5076058;28;20039;-67
2023/08/02 13:17:57;;;;;;;97.63;92.65;;;;;;;;;;5074583;28;20024;-66
2023/08/02 13:20:22;;;;;;;65.32;62.00;;;;;;;;;;5072136;28;20043;-67
2023/08/02 13:22:48;;;;;;;107.80;102.38;;;;;;;;;;5076825;28;20103;-67
2023/08/02 13:25:14;;;;;;;105.60;100.05;;;;;;;;;;5080846;28;20059;-71
2023/08/02 13:27:39;;;;;;;104.03;98.78;;;;;;;;;;5077562;28;20063;-67
2023/08/02 13:30:05;;;;;;;99.78;94.72;;;;;;;;;;5074631;28;20028;-69
2023/08/02 13:32:34;;;;;;;109.97;104.40;;;;;;;;;;5076989;28;20086;-69
2023/08/02 13:35:04;;;;;;;69.82;66.25;;;;;;;;;;5076332;28;20028;-71
2023/08/02 13:37:30;;;;;;;67.07;63.67;;;;;;;;;;5080953;28;20035;-67
2023/08/02 13:39:55;;;;;;;91.57;86.95;;;;;;;;;;5076763;28;20043;-69
2023/08/02 13:42:23;;;;;;;74.13;70.30;;;;;;;;;;5077216;28;20410;-70
2023/08/02 13:44:52;;;;;;;55.35;52.50;;;;;;;;;;5076407;28;20024;-69
2023/08/02 13:47:18;;;;;;;60.20;57.08;;;;;;;;;;5078689;28;20040;-71
2023/08/02 13:49:44;;;;;;;76.35;72.47;;;;;;;;;;5079206;28;20032;-70
2023/08/02 13:52:10;;;;;;;82.07;77.93;;;;;;;;;;5078170;28;20036;-67
2023/08/02 13:54:35;;;;;;;80.18;76.07;;;;;;;;;;5077104;28;20066;-72
2023/08/02 13:57:01;;;;;;;95.75;90.82;;;;;;;;;;5081459;28;20040;-71
2023/08/02 13:59:26;;;;;;;77.30;73.32;;;;;;;;;;5078436;28;20032;-75
2023/08/02 14:01:51;;;;;;;82.78;78.43;;;;;;;;;;5080347;28;20028;-72
2023/08/02 14:04:19;;;;;;;104.00;98.78;;;;;;;;;;5079056;28;20122;-73
2023/08/02 14:06:45;;;;;;;108.25;102.72;;;;;;;;;;5074963;28;20035;-72
2023/08/02 14:09:11;;;;;;;105.50;100.20;;;;;;;;;;5080845;28;20040;-72